Terminal Aerodrome Forecast
Issued by NWS Knoxville/Tri Cities, TN

Home | Current Version | Previous Version | Text Only | Print | Product List | Glossary On
Versions: 1 2 3 4 5 6 7 8 9 10 11 12 13 14 15 16 17 18 19 20 21 22 23 24 25 26 27 28 29 30 31 32 33 34 35 36
219
FTUS44 KMRX 221120
TAFCHA
TAF
KCHA 221120Z 2212/2312 VRB04KT P6SM BKN050
     FM221500 15011G18KT P6SM SCT040 BKN250
     FM222300 15009KT P6SM SCT040 OVC120
     FM230600 15006KT 5SM -SHRA BR SCT007 OVC012=

USA.gov is the U.S. government's official web portal to all federal, state and local government web resources and services.